sensor_id;sensor_type;location;lat;lon;timestamp;P1;durP1;ratioP1;P2;durP2;ratioP2
66429;SDS011;53242;51.694;10.006;2023-07-29T00:00:48;3.13;;;1.70;;
66429;SDS011;53242;51.694;10.006;2023-07-29T00:03:10;2.58;;;1.70;;
66429;SDS011;53242;51.694;10.006;2023-07-29T00:05:33;2.45;;;1.60;;
66429;SDS011;53242;51.694;10.006;2023-07-29T00:07:55;3.42;;;1.60;;
66429;SDS011;53242;51.694;10.006;2023-07-29T00:10:18;7.82;;;2.10;;
66429;SDS011;53242;51.694;10.006;2023-07-29T00:12:40;3.78;;;1.58;;
66429;SDS011;53242;51.694;10.006;2023-07-29T00:15:02;2.88;;;1.65;;
66429;SDS011;53242;51.694;10.006;2023-07-29T00:17:25;3.15;;;1.70;;
66429;SDS011;53242;51.694;10.006;2023-07-29T00:19:48;3.40;;;1.90;;
66429;SDS011;53242;51.694;10.006;2023-07-29T00:22:10;2.47;;;1.40;;
66429;SDS011;53242;51.694;10.006;2023-07-29T00:24:32;3.63;;;1.77;;
66429;SDS011;53242;51.694;10.006;2023-07-29T00:26:55;4.70;;;1.85;;
66429;SDS011;53242;51.694;10.006;2023-07-29T00:29:17;3.97;;;1.88;;
66429;SDS011;53242;51.694;10.006;2023-07-29T00:31:40;2.00;;;1.50;;
66429;SDS011;53242;51.694;10.006;2023-07-29T00:34:02;5.50;;;1.88;;
66429;SDS011;53242;51.694;10.006;2023-07-29T00:36:24;4.15;;;1.85;;
66429;SDS011;53242;51.694;10.006;2023-07-29T00:38:47;4.03;;;1.60;;
66429;SDS011;53242;51.694;10.006;2023-07-29T00:41:11;3.70;;;1.42;;
66429;SDS011;53242;51.694;10.006;2023-07-29T00:43:37;2.17;;;1.40;;
66429;SDS011;53242;51.694;10.006;2023-07-29T00:46:00;3.63;;;1.52;;
66429;SDS011;53242;51.694;10.006;2023-07-29T00:48:23;3.53;;;1.30;;
66429;SDS011;53242;51.694;10.006;2023-07-29T00:50:46;2.60;;;1.60;;
66429;SDS011;53242;51.694;10.006;2023-07-29T00:53:08;3.35;;;1.70;;
66429;SDS011;53242;51.694;10.006;2023-07-29T00:55:30;3.05;;;1.60;;
66429;SDS011;53242;51.694;10.006;2023-07-29T00:57:53;2.05;;;1.40;;
66429;SDS011;53242;51.694;10.006;2023-07-29T01:00:16;4.10;;;1.50;;
66429;SDS011;53242;51.694;10.006;2023-07-29T01:02:39;2.80;;;1.50;;
66429;SDS011;53242;51.694;10.006;2023-07-29T01:05:02;3.67;;;1.60;;
66429;SDS011;53242;51.694;10.006;2023-07-29T01:07:29;3.63;;;1.70;;
66429;SDS011;53242;51.694;10.006;2023-07-29T01:12:51;4.05;;;1.55;;
66429;SDS011;53242;51.694;10.006;2023-07-29T01:15:28;3.65;;;1.40;;
66429;SDS011;53242;51.694;10.006;2023-07-29T01:18:06;2.25;;;1.50;;
66429;SDS011;53242;51.694;10.006;2023-07-29T01:20:33;2.28;;;1.40;;
66429;SDS011;53242;51.694;10.006;2023-07-29T01:22:59;6.75;;;1.80;;
66429;SDS011;53242;51.694;10.006;2023-07-29T01:25:21;4.35;;;1.60;;
66429;SDS011;53242;51.694;10.006;2023-07-29T01:27:45;2.88;;;1.80;;
66429;SDS011;53242;51.694;10.006;2023-07-29T01:30:08;4.93;;;1.83;;
66429;SDS011;53242;51.694;10.006;2023-07-29T01:32:42;4.20;;;1.52;;
66429;SDS011;53242;51.694;10.006;2023-07-29T01:35:23;4.28;;;1.40;;
66429;SDS011;53242;51.694;10.006;2023-07-29T01:37:52;3.13;;;1.40;;
66429;SDS011;53242;51.694;10.006;2023-07-29T01:40:18;3.95;;;1.88;;
66429;SDS011;53242;51.694;10.006;2023-07-29T01:42:41;4.47;;;1.77;;
66429;SDS011;53242;51.694;10.006;2023-07-29T01:45:04;3.25;;;1.70;;
66429;SDS011;53242;51.694;10.006;2023-07-29T01:47:27;2.83;;;1.50;;
66429;SDS011;53242;51.694;10.006;2023-07-29T01:49:51;3.70;;;1.70;;
66429;SDS011;53242;51.694;10.006;2023-07-29T01:52:14;3.08;;;1.60;;
66429;SDS011;53242;51.694;10.006;2023-07-29T01:54:37;3.58;;;1.83;;
66429;SDS011;53242;51.694;10.006;2023-07-29T01:56:59;2.45;;;1.42;;
66429;SDS011;53242;51.694;10.006;2023-07-29T01:59:22;2.83;;;1.50;;
66429;SDS011;53242;51.694;10.006;2023-07-29T02:01:44;3.83;;;1.58;;
66429;SDS011;53242;51.694;10.006;2023-07-29T02:04:08;3.13;;;1.83;;
66429;SDS011;53242;51.694;10.006;2023-07-29T02:06:30;3.15;;;1.70;;
66429;SDS011;53242;51.694;10.006;2023-07-29T02:08:53;2.72;;;1.63;;
66429;SDS011;53242;51.694;10.006;2023-07-29T02:11:17;3.83;;;2.10;;
66429;SDS011;53242;51.694;10.006;2023-07-29T02:13:39;5.88;;;1.88;;
66429;SDS011;53242;51.694;10.006;2023-07-29T02:16:01;3.85;;;1.75;;
66429;SDS011;53242;51.694;10.006;2023-07-29T02:18:24;3.28;;;1.67;;
66429;SDS011;53242;51.694;10.006;2023-07-29T02:20:46;2.65;;;1.77;;
66429;SDS011;53242;51.694;10.006;2023-07-29T02:23:11;3.22;;;1.88;;
66429;SDS011;53242;51.694;10.006;2023-07-29T02:25:35;3.95;;;1.50;;
66429;SDS011;53242;51.694;10.006;2023-07-29T02:27:58;3.88;;;1.60;;
66429;SDS011;53242;51.694;10.006;2023-07-29T02:30:21;3.17;;;1.80;;
66429;SDS011;53242;51.694;10.006;2023-07-29T02:32:43;3.95;;;1.80;;
66429;SDS011;53242;51.694;10.006;2023-07-29T02:35:06;2.80;;;2.08;;
66429;SDS011;53242;51.694;10.006;2023-07-29T02:37:28;5.25;;;1.92;;
66429;SDS011;53242;51.694;10.006;2023-07-29T02:39:51;3.08;;;1.65;;
66429;SDS011;53242;51.694;10.006;2023-07-29T02:42:13;3.20;;;2.00;;
66429;SDS011;53242;51.694;10.006;2023-07-29T02:44:36;4.40;;;2.05;;
66429;SDS011;53242;51.694;10.006;2023-07-29T02:46:58;3.70;;;2.00;;
66429;SDS011;53242;51.694;10.006;2023-07-29T02:49:21;3.35;;;1.70;;
66429;SDS011;53242;51.694;10.006;2023-07-29T02:51:45;2.92;;;1.90;;
66429;SDS011;53242;51.694;10.006;2023-07-29T02:54:07;2.53;;;1.75;;
66429;SDS011;53242;51.694;10.006;2023-07-29T02:56:29;3.15;;;1.90;;
66429;SDS011;53242;51.694;10.006;2023-07-29T02:58:55;3.15;;;1.70;;
66429;SDS011;53242;51.694;10.006;2023-07-29T03:01:17;3.35;;;1.90;;
66429;SDS011;53242;51.694;10.006;2023-07-29T03:03:40;2.50;;;1.65;;
66429;SDS011;53242;51.694;10.006;2023-07-29T03:06:07;2.50;;;1.73;;
66429;SDS011;53242;51.694;10.006;2023-07-29T03:08:30;3.05;;;1.83;;
66429;SDS011;53242;51.694;10.006;2023-07-29T03:10:53;2.97;;;1.73;;
66429;SDS011;53242;51.694;10.006;2023-07-29T03:13:16;3.42;;;1.80;;
66429;SDS011;53242;51.694;10.006;2023-07-29T03:15:38;5.00;;;1.83;;
66429;SDS011;53242;51.694;10.006;2023-07-29T03:18:01;3.25;;;1.75;;
66429;SDS011;53242;51.694;10.006;2023-07-29T03:20:23;4.30;;;1.98;;
66429;SDS011;53242;51.694;10.006;2023-07-29T03:22:46;3.85;;;1.65;;
66429;SDS011;53242;51.694;10.006;2023-07-29T03:25:09;2.95;;;1.63;;
66429;SDS011;53242;51.694;10.006;2023-07-29T03:27:31;3.08;;;1.60;;
66429;SDS011;53242;51.694;10.006;2023-07-29T03:29:54;3.80;;;1.75;;
66429;SDS011;53242;51.694;10.006;2023-07-29T03:32:16;3.80;;;1.90;;
66429;SDS011;53242;51.694;10.006;2023-07-29T03:34:39;2.50;;;1.60;;
66429;SDS011;53242;51.694;10.006;2023-07-29T03:37:02;4.00;;;1.73;;
66429;SDS011;53242;51.694;10.006;2023-07-29T03:39:24;3.17;;;1.70;;
66429;SDS011;53242;51.694;10.006;2023-07-29T03:41:48;3.75;;;2.22;;
66429;SDS011;53242;51.694;10.006;2023-07-29T03:44:10;3.17;;;1.80;;
66429;SDS011;53242;51.694;10.006;2023-07-29T03:46:33;4.07;;;1.90;;
66429;SDS011;53242;51.694;10.006;2023-07-29T03:48:55;4.40;;;1.70;;
66429;SDS011;53242;51.694;10.006;2023-07-29T03:51:18;3.58;;;1.83;;
66429;SDS011;53242;51.694;10.006;2023-07-29T03:53:40;3.33;;;1.92;;
66429;SDS011;53242;51.694;10.006;2023-07-29T03:56:03;2.80;;;1.70;;
66429;SDS011;53242;51.694;10.006;2023-07-29T03:58:25;4.40;;;1.95;;
66429;SDS011;53242;51.694;10.006;2023-07-29T04:00:48;3.97;;;1.80;;
66429;SDS011;53242;51.694;10.006;2023-07-29T04:03:10;4.18;;;2.22;;
66429;SDS011;53242;51.694;10.006;2023-07-29T04:05:33;2.97;;;2.00;;
66429;SDS011;53242;51.694;10.006;2023-07-29T04:07:55;4.00;;;2.22;;
66429;SDS011;53242;51.694;10.006;2023-07-29T04:10:18;3.45;;;2.00;;
66429;SDS011;53242;51.694;10.006;2023-07-29T04:12:40;5.78;;;2.28;;
66429;SDS011;53242;51.694;10.006;2023-07-29T04:15:03;2.92;;;2.00;;
66429;SDS011;53242;51.694;10.006;2023-07-29T04:17:25;4.25;;;1.65;;
66429;SDS011;53242;51.694;10.006;2023-07-29T04:19:48;3.30;;;2.10;;
66429;SDS011;53242;51.694;10.006;2023-07-29T04:22:10;2.75;;;1.90;;
66429;SDS011;53242;51.694;10.006;2023-07-29T04:24:33;4.25;;;1.80;;
66429;SDS011;53242;51.694;10.006;2023-07-29T04:26:55;3.20;;;1.90;;
66429;SDS011;53242;51.694;10.006;2023-07-29T04:29:17;4.63;;;2.53;;
66429;SDS011;53242;51.694;10.006;2023-07-29T04:31:40;3.30;;;2.00;;
66429;SDS011;53242;51.694;10.006;2023-07-29T04:34:04;4.15;;;1.95;;
66429;SDS011;53242;51.694;10.006;2023-07-29T04:36:28;2.40;;;1.90;;
66429;SDS011;53242;51.694;10.006;2023-07-29T04:38:50;3.67;;;1.88;;
66429;SDS011;53242;51.694;10.006;2023-07-29T04:41:13;4.43;;;1.73;;
66429;SDS011;53242;51.694;10.006;2023-07-29T04:43:35;5.03;;;2.05;;
66429;SDS011;53242;51.694;10.006;2023-07-29T04:45:57;4.55;;;2.00;;
66429;SDS011;53242;51.694;10.006;2023-07-29T04:48:20;3.88;;;2.00;;
66429;SDS011;53242;51.694;10.006;2023-07-29T04:50:43;4.68;;;2.00;;
66429;SDS011;53242;51.694;10.006;2023-07-29T04:53:05;5.53;;;2.10;;
66429;SDS011;53242;51.694;10.006;2023-07-29T04:55:27;4.15;;;2.30;;
66429;SDS011;53242;51.694;10.006;2023-07-29T04:57:50;5.85;;;2.00;;
66429;SDS011;53242;51.694;10.006;2023-07-29T05:00:12;4.03;;;2.15;;
66429;SDS011;53242;51.694;10.006;2023-07-29T05:02:35;4.97;;;2.00;;
66429;SDS011;53242;51.694;10.006;2023-07-29T05:04:58;4.05;;;2.17;;
66429;SDS011;53242;51.694;10.006;2023-07-29T05:07:20;6.05;;;2.38;;
66429;SDS011;53242;51.694;10.006;2023-07-29T05:09:42;4.82;;;2.25;;
66429;SDS011;53242;51.694;10.006;2023-07-29T05:12:05;3.83;;;2.40;;
66429;SDS011;53242;51.694;10.006;2023-07-29T05:14:28;6.55;;;2.53;;
66429;SDS011;53242;51.694;10.006;2023-07-29T05:16:50;4.07;;;2.10;;
66429;SDS011;53242;51.694;10.006;2023-07-29T05:19:13;4.57;;;2.30;;
66429;SDS011;53242;51.694;10.006;2023-07-29T05:21:36;3.80;;;2.20;;
66429;SDS011;53242;51.694;10.006;2023-07-29T05:23:59;4.97;;;1.90;;
66429;SDS011;53242;51.694;10.006;2023-07-29T05:26:22;5.20;;;2.15;;
66429;SDS011;53242;51.694;10.006;2023-07-29T05:28:45;5.68;;;2.17;;
66429;SDS011;53242;51.694;10.006;2023-07-29T05:31:07;3.53;;;1.95;;
66429;SDS011;53242;51.694;10.006;2023-07-29T05:33:30;3.35;;;1.77;;
66429;SDS011;53242;51.694;10.006;2023-07-29T05:35:52;3.92;;;2.17;;
66429;SDS011;53242;51.694;10.006;2023-07-29T05:38:15;5.65;;;2.20;;
66429;SDS011;53242;51.694;10.006;2023-07-29T05:40:37;4.38;;;2.15;;
66429;SDS011;53242;51.694;10.006;2023-07-29T05:43:00;3.35;;;1.70;;
66429;SDS011;53242;51.694;10.006;2023-07-29T05:45:22;3.15;;;1.98;;
66429;SDS011;53242;51.694;10.006;2023-07-29T05:47:44;3.42;;;1.90;;
66429;SDS011;53242;51.694;10.006;2023-07-29T05:50:07;4.50;;;2.30;;
66429;SDS011;53242;51.694;10.006;2023-07-29T05:52:31;3.42;;;2.05;;
66429;SDS011;53242;51.694;10.006;2023-07-29T05:54:53;3.67;;;2.20;;
66429;SDS011;53242;51.694;10.006;2023-07-29T05:57:16;3.58;;;1.90;;
66429;SDS011;53242;51.694;10.006;2023-07-29T05:59:38;4.47;;;2.13;;
66429;SDS011;53242;51.694;10.006;2023-07-29T06:02:01;4.72;;;2.28;;
66429;SDS011;53242;51.694;10.006;2023-07-29T06:04:23;4.97;;;2.17;;
66429;SDS011;53242;51.694;10.006;2023-07-29T06:06:45;4.57;;;2.38;;
66429;SDS011;53242;51.694;10.006;2023-07-29T06:09:08;3.35;;;2.15;;
66429;SDS011;53242;51.694;10.006;2023-07-29T06:11:30;3.90;;;2.30;;
66429;SDS011;53242;51.694;10.006;2023-07-29T06:13:53;4.55;;;2.33;;
66429;SDS011;53242;51.694;10.006;2023-07-29T06:16:15;5.00;;;2.20;;
66429;SDS011;53242;51.694;10.006;2023-07-29T06:18:38;3.45;;;2.17;;
66429;SDS011;53242;51.694;10.006;2023-07-29T06:21:01;4.85;;;2.63;;
66429;SDS011;53242;51.694;10.006;2023-07-29T06:23:23;4.65;;;2.80;;
66429;SDS011;53242;51.694;10.006;2023-07-29T06:25:45;3.90;;;2.35;;
66429;SDS011;53242;51.694;10.006;2023-07-29T06:28:11;3.80;;;2.45;;
66429;SDS011;53242;51.694;10.006;2023-07-29T06:30:33;4.43;;;2.70;;
66429;SDS011;53242;51.694;10.006;2023-07-29T06:32:56;5.28;;;2.88;;
66429;SDS011;53242;51.694;10.006;2023-07-29T06:35:18;5.53;;;2.80;;
66429;SDS011;53242;51.694;10.006;2023-07-29T06:37:41;7.07;;;2.97;;
66429;SDS011;53242;51.694;10.006;2023-07-29T06:40:04;6.38;;;2.65;;
66429;SDS011;53242;51.694;10.006;2023-07-29T06:42:27;5.70;;;2.78;;
66429;SDS011;53242;51.694;10.006;2023-07-29T06:44:49;8.60;;;3.65;;
66429;SDS011;53242;51.694;10.006;2023-07-29T06:47:12;5.05;;;2.88;;
66429;SDS011;53242;51.694;10.006;2023-07-29T06:49:34;7.82;;;2.45;;
66429;SDS011;53242;51.694;10.006;2023-07-29T06:51:57;5.22;;;2.65;;
66429;SDS011;53242;51.694;10.006;2023-07-29T06:54:22;5.20;;;2.67;;
66429;SDS011;53242;51.694;10.006;2023-07-29T06:56:47;3.75;;;2.25;;
66429;SDS011;53242;51.694;10.006;2023-07-29T06:59:09;5.30;;;2.50;;
66429;SDS011;53242;51.694;10.006;2023-07-29T07:01:33;5.70;;;2.47;;
66429;SDS011;53242;51.694;10.006;2023-07-29T07:03:56;8.50;;;2.85;;
66429;SDS011;53242;51.694;10.006;2023-07-29T07:06:21;5.53;;;2.97;;
66429;SDS011;53242;51.694;10.006;2023-07-29T07:08:44;6.50;;;3.10;;
66429;SDS011;53242;51.694;10.006;2023-07-29T07:11:06;6.43;;;3.22;;
66429;SDS011;53242;51.694;10.006;2023-07-29T07:13:29;5.60;;;3.47;;
66429;SDS011;53242;51.694;10.006;2023-07-29T07:15:53;6.45;;;3.55;;
66429;SDS011;53242;51.694;10.006;2023-07-29T07:18:17;6.00;;;3.40;;
66429;SDS011;53242;51.694;10.006;2023-07-29T07:20:39;6.78;;;2.90;;
66429;SDS011;53242;51.694;10.006;2023-07-29T07:23:01;6.55;;;3.72;;
66429;SDS011;53242;51.694;10.006;2023-07-29T07:25:24;5.35;;;3.13;;
66429;SDS011;53242;51.694;10.006;2023-07-29T07:27:47;7.60;;;3.22;;
66429;SDS011;53242;51.694;10.006;2023-07-29T07:30:10;6.22;;;3.47;;
66429;SDS011;53242;51.694;10.006;2023-07-29T07:32:33;7.82;;;3.20;;
66429;SDS011;53242;51.694;10.006;2023-07-29T07:34:55;6.35;;;3.50;;
66429;SDS011;53242;51.694;10.006;2023-07-29T07:37:18;8.93;;;3.20;;
66429;SDS011;53242;51.694;10.006;2023-07-29T07:39:40;7.07;;;3.53;;
66429;SDS011;53242;51.694;10.006;2023-07-29T07:42:03;7.22;;;3.55;;
66429;SDS011;53242;51.694;10.006;2023-07-29T07:44:25;5.55;;;3.55;;
66429;SDS011;53242;51.694;10.006;2023-07-29T07:46:48;6.15;;;3.35;;
66429;SDS011;53242;51.694;10.006;2023-07-29T07:49:10;6.82;;;3.65;;
66429;SDS011;53242;51.694;10.006;2023-07-29T07:51:34;5.82;;;3.17;;
66429;SDS011;53242;51.694;10.006;2023-07-29T07:53:57;6.13;;;3.03;;
66429;SDS011;53242;51.694;10.006;2023-07-29T07:56:19;5.95;;;3.75;;
66429;SDS011;53242;51.694;10.006;2023-07-29T07:58:42;5.68;;;3.17;;
66429;SDS011;53242;51.694;10.006;2023-07-29T08:01:04;5.40;;;3.65;;
66429;SDS011;53242;51.694;10.006;2023-07-29T08:05:50;7.13;;;3.13;;
66429;SDS011;53242;51.694;10.006;2023-07-29T08:08:13;6.40;;;3.72;;
66429;SDS011;53242;51.694;10.006;2023-07-29T08:10:35;7.30;;;4.03;;
66429;SDS011;53242;51.694;10.006;2023-07-29T08:12:58;6.03;;;3.30;;
66429;SDS011;53242;51.694;10.006;2023-07-29T08:15:21;6.40;;;3.35;;
66429;SDS011;53242;51.694;10.006;2023-07-29T08:17:43;5.30;;;3.33;;
66429;SDS011;53242;51.694;10.006;2023-07-29T08:20:07;6.50;;;3.60;;
66429;SDS011;53242;51.694;10.006;2023-07-29T08:22:30;6.13;;;3.50;;
66429;SDS011;53242;51.694;10.006;2023-07-29T08:24:53;6.60;;;3.45;;
66429;SDS011;53242;51.694;10.006;2023-07-29T08:27:15;7.05;;;3.25;;
66429;SDS011;53242;51.694;10.006;2023-07-29T08:29:38;6.05;;;2.75;;
66429;SDS011;53242;51.694;10.006;2023-07-29T08:32:01;6.63;;;2.95;;
66429;SDS011;53242;51.694;10.006;2023-07-29T08:34:23;5.30;;;3.00;;
66429;SDS011;53242;51.694;10.006;2023-07-29T08:36:45;5.78;;;3.15;;
66429;SDS011;53242;51.694;10.006;2023-07-29T08:39:08;7.30;;;3.20;;
66429;SDS011;53242;51.694;10.006;2023-07-29T08:42:13;5.40;;;2.80;;
66429;SDS011;53242;51.694;10.006;2023-07-29T08:44:26;6.07;;;3.25;;
66429;SDS011;53242;51.694;10.006;2023-07-29T08:46:52;6.05;;;3.35;;
66429;SDS011;53242;51.694;10.006;2023-07-29T08:49:16;6.15;;;3.33;;
66429;SDS011;53242;51.694;10.006;2023-07-29T08:51:47;6.65;;;2.72;;
66429;SDS011;53242;51.694;10.006;2023-07-29T08:54:10;6.72;;;3.70;;
66429;SDS011;53242;51.694;10.006;2023-07-29T08:56:33;5.85;;;3.30;;
66429;SDS011;53242;51.694;10.006;2023-07-29T08:58:55;6.40;;;2.85;;
66429;SDS011;53242;51.694;10.006;2023-07-29T09:01:18;5.85;;;3.20;;
66429;SDS011;53242;51.694;10.006;2023-07-29T09:03:41;5.32;;;3.15;;
66429;SDS011;53242;51.694;10.006;2023-07-29T09:06:03;7.82;;;3.38;;
66429;SDS011;53242;51.694;10.006;2023-07-29T09:08:27;6.75;;;3.20;;
66429;SDS011;53242;51.694;10.006;2023-07-29T09:10:50;6.10;;;3.20;;
66429;SDS011;53242;51.694;10.006;2023-07-29T09:13:12;6.35;;;2.90;;
66429;SDS011;53242;51.694;10.006;2023-07-29T09:15:35;4.65;;;2.63;;
66429;SDS011;53242;51.694;10.006;2023-07-29T09:17:59;6.50;;;3.13;;
66429;SDS011;53242;51.694;10.006;2023-07-29T09:20:30;5.90;;;3.03;;
66429;SDS011;53242;51.694;10.006;2023-07-29T09:22:57;5.85;;;3.15;;
66429;SDS011;53242;51.694;10.006;2023-07-29T09:25:28;5.68;;;2.80;;
66429;SDS011;53242;51.694;10.006;2023-07-29T09:27:51;5.35;;;2.83;;
66429;SDS011;53242;51.694;10.006;2023-07-29T09:30:15;5.60;;;2.70;;
66429;SDS011;53242;51.694;10.006;2023-07-29T09:32:38;6.03;;;3.00;;
66429;SDS011;53242;51.694;10.006;2023-07-29T09:35:01;5.75;;;2.85;;
66429;SDS011;53242;51.694;10.006;2023-07-29T09:37:23;7.93;;;2.75;;
66429;SDS011;53242;51.694;10.006;2023-07-29T09:39:47;5.43;;;2.67;;
66429;SDS011;53242;51.694;10.006;2023-07-29T09:42:19;6.53;;;2.83;;
66429;SDS011;53242;51.694;10.006;2023-07-29T09:44:44;6.25;;;2.80;;
66429;SDS011;53242;51.694;10.006;2023-07-29T09:47:06;5.03;;;2.50;;
66429;SDS011;53242;51.694;10.006;2023-07-29T09:49:28;5.05;;;2.65;;
66429;SDS011;53242;51.694;10.006;2023-07-29T09:51:58;4.57;;;2.47;;
66429;SDS011;53242;51.694;10.006;2023-07-29T09:54:24;5.50;;;2.60;;
66429;SDS011;53242;51.694;10.006;2023-07-29T09:56:46;4.38;;;2.40;;
66429;SDS011;53242;51.694;10.006;2023-07-29T09:59:09;5.22;;;2.55;;
66429;SDS011;53242;51.694;10.006;2023-07-29T10:01:32;4.13;;;2.50;;
66429;SDS011;53242;51.694;10.006;2023-07-29T10:03:57;4.15;;;2.50;;
66429;SDS011;53242;51.694;10.006;2023-07-29T10:06:22;4.57;;;2.45;;
66429;SDS011;53242;51.694;10.006;2023-07-29T10:08:44;7.82;;;2.75;;
66429;SDS011;53242;51.694;10.006;2023-07-29T10:11:07;4.47;;;2.50;;
66429;SDS011;53242;51.694;10.006;2023-07-29T10:13:31;4.70;;;2.40;;
66429;SDS011;53242;51.694;10.006;2023-07-29T10:15:54;5.30;;;2.50;;
66429;SDS011;53242;51.694;10.006;2023-07-29T10:20:41;3.42;;;2.20;;
66429;SDS011;53242;51.694;10.006;2023-07-29T10:23:06;4.90;;;2.42;;
66429;SDS011;53242;51.694;10.006;2023-07-29T10:25:32;3.28;;;2.22;;
66429;SDS011;53242;51.694;10.006;2023-07-29T10:28:06;3.38;;;2.08;;
66429;SDS011;53242;51.694;10.006;2023-07-29T10:30:29;3.35;;;1.90;;
66429;SDS011;53242;51.694;10.006;2023-07-29T10:32:52;3.53;;;2.17;;
66429;SDS011;53242;51.694;10.006;2023-07-29T10:35:15;2.95;;;1.92;;
66429;SDS011;53242;51.694;10.006;2023-07-29T10:37:38;5.60;;;2.25;;
66429;SDS011;53242;51.694;10.006;2023-07-29T10:40:03;4.07;;;2.20;;
66429;SDS011;53242;51.694;10.006;2023-07-29T10:42:29;3.00;;;2.20;;
66429;SDS011;53242;51.694;10.006;2023-07-29T10:44:52;3.15;;;2.33;;
66429;SDS011;53242;51.694;10.006;2023-07-29T10:47:15;6.60;;;2.42;;
66429;SDS011;53242;51.694;10.006;2023-07-29T10:49:46;3.97;;;2.15;;
66429;SDS011;53242;51.694;10.006;2023-07-29T10:52:15;6.57;;;2.10;;
66429;SDS011;53242;51.694;10.006;2023-07-29T10:54:45;5.20;;;2.35;;
66429;SDS011;53242;51.694;10.006;2023-07-29T10:57:12;5.47;;;2.25;;
66429;SDS011;53242;51.694;10.006;2023-07-29T10:59:38;5.40;;;2.60;;
66429;SDS011;53242;51.694;10.006;2023-07-29T11:02:01;5.30;;;2.22;;
66429;SDS011;53242;51.694;10.006;2023-07-29T11:04:24;2.75;;;1.52;;
66429;SDS011;53242;51.694;10.006;2023-07-29T11:12:05;3.80;;;1.58;;
66429;SDS011;53242;51.694;10.006;2023-07-29T11:14:48;3.90;;;1.60;;
66429;SDS011;53242;51.694;10.006;2023-07-29T11:17:10;3.53;;;1.60;;
66429;SDS011;53242;51.694;10.006;2023-07-29T11:19:33;5.20;;;2.05;;
66429;SDS011;53242;51.694;10.006;2023-07-29T11:21:57;6.10;;;1.98;;
66429;SDS011;53242;51.694;10.006;2023-07-29T11:24:20;6.25;;;2.30;;
66429;SDS011;53242;51.694;10.006;2023-07-29T11:26:46;3.50;;;2.03;;
66429;SDS011;53242;51.694;10.006;2023-07-29T11:29:09;5.13;;;2.65;;
66429;SDS011;53242;51.694;10.006;2023-07-29T11:31:40;6.85;;;3.47;;
66429;SDS011;53242;51.694;10.006;2023-07-29T11:34:06;7.32;;;3.90;;
66429;SDS011;53242;51.694;10.006;2023-07-29T11:36:29;7.13;;;3.90;;
66429;SDS011;53242;51.694;10.006;2023-07-29T11:38:51;7.35;;;3.58;;
66429;SDS011;53242;51.694;10.006;2023-07-29T11:41:18;7.25;;;4.10;;
66429;SDS011;53242;51.694;10.006;2023-07-29T11:43:41;6.43;;;3.90;;
66429;SDS011;53242;51.694;10.006;2023-07-29T11:46:05;6.63;;;3.42;;
66429;SDS011;53242;51.694;10.006;2023-07-29T11:48:28;7.55;;;4.35;;
66429;SDS011;53242;51.694;10.006;2023-07-29T11:50:53;5.28;;;3.22;;
66429;SDS011;53242;51.694;10.006;2023-07-29T11:55:39;4.93;;;2.80;;
66429;SDS011;53242;51.694;10.006;2023-07-29T11:58:01;4.82;;;2.60;;
66429;SDS011;53242;51.694;10.006;2023-07-29T12:00:24;7.78;;;2.78;;
66429;SDS011;53242;51.694;10.006;2023-07-29T12:02:47;5.10;;;3.03;;
66429;SDS011;53242;51.694;10.006;2023-07-29T12:05:12;5.90;;;2.83;;
66429;SDS011;53242;51.694;10.006;2023-07-29T12:07:37;6.25;;;2.85;;
66429;SDS011;53242;51.694;10.006;2023-07-29T12:10:01;6.30;;;3.20;;
66429;SDS011;53242;51.694;10.006;2023-07-29T12:12:25;6.43;;;3.50;;
66429;SDS011;53242;51.694;10.006;2023-07-29T12:14:47;6.32;;;3.58;;
66429;SDS011;53242;51.694;10.006;2023-07-29T12:17:10;5.57;;;3.47;;
66429;SDS011;53242;51.694;10.006;2023-07-29T12:19:33;4.68;;;3.00;;
66429;SDS011;53242;51.694;10.006;2023-07-29T12:21:57;6.50;;;2.80;;
66429;SDS011;53242;51.694;10.006;2023-07-29T12:24:19;4.60;;;2.95;;
66429;SDS011;53242;51.694;10.006;2023-07-29T12:26:44;6.93;;;3.40;;
66429;SDS011;53242;51.694;10.006;2023-07-29T12:29:13;6.72;;;3.17;;
66429;SDS011;53242;51.694;10.006;2023-07-29T12:31:41;10.02;;;3.47;;
66429;SDS011;53242;51.694;10.006;2023-07-29T12:34:04;6.22;;;2.75;;
66429;SDS011;53242;51.694;10.006;2023-07-29T12:36:28;6.32;;;3.03;;
66429;SDS011;53242;51.694;10.006;2023-07-29T12:39:03;5.25;;;2.58;;
66429;SDS011;53242;51.694;10.006;2023-07-29T12:41:26;3.38;;;1.92;;
66429;SDS011;53242;51.694;10.006;2023-07-29T12:43:48;3.78;;;2.28;;
66429;SDS011;53242;51.694;10.006;2023-07-29T12:46:11;4.18;;;2.55;;
66429;SDS011;53242;51.694;10.006;2023-07-29T12:48:33;4.55;;;2.40;;
66429;SDS011;53242;51.694;10.006;2023-07-29T12:50:55;4.57;;;2.25;;
66429;SDS011;53242;51.694;10.006;2023-07-29T12:53:18;3.08;;;1.70;;
66429;SDS011;53242;51.694;10.006;2023-07-29T12:55:40;2.10;;;1.50;;
66429;SDS011;53242;51.694;10.006;2023-07-29T12:58:03;3.42;;;1.70;;
66429;SDS011;53242;51.694;10.006;2023-07-29T13:00:25;3.90;;;1.60;;
66429;SDS011;53242;51.694;10.006;2023-07-29T13:02:48;2.10;;;1.70;;
66429;SDS011;53242;51.694;10.006;2023-07-29T13:05:10;3.88;;;1.90;;
66429;SDS011;53242;51.694;10.006;2023-07-29T13:07:37;2.17;;;1.52;;
66429;SDS011;53242;51.694;10.006;2023-07-29T13:10:02;3.13;;;1.55;;
66429;SDS011;53242;51.694;10.006;2023-07-29T13:12:25;2.58;;;1.67;;
66429;SDS011;53242;51.694;10.006;2023-07-29T13:14:47;2.42;;;1.40;;
66429;SDS011;53242;51.694;10.006;2023-07-29T13:17:09;3.25;;;1.55;;
66429;SDS011;53242;51.694;10.006;2023-07-29T13:19:32;1.95;;;1.30;;
66429;SDS011;53242;51.694;10.006;2023-07-29T13:21:54;2.22;;;1.25;;
66429;SDS011;53242;51.694;10.006;2023-07-29T13:24:17;2.17;;;1.38;;
66429;SDS011;53242;51.694;10.006;2023-07-29T13:26:39;2.50;;;1.40;;
66429;SDS011;53242;51.694;10.006;2023-07-29T13:29:02;3.20;;;1.50;;
66429;SDS011;53242;51.694;10.006;2023-07-29T13:31:26;2.15;;;1.35;;
66429;SDS011;53242;51.694;10.006;2023-07-29T13:33:48;2.47;;;1.42;;
66429;SDS011;53242;51.694;10.006;2023-07-29T13:36:11;1.92;;;1.40;;
66429;SDS011;53242;51.694;10.006;2023-07-29T13:38:33;1.95;;;1.40;;
66429;SDS011;53242;51.694;10.006;2023-07-29T13:40:55;2.10;;;1.63;;
66429;SDS011;53242;51.694;10.006;2023-07-29T13:43:18;1.80;;;1.40;;
66429;SDS011;53242;51.694;10.006;2023-07-29T13:45:40;1.83;;;1.38;;
66429;SDS011;53242;51.694;10.006;2023-07-29T13:48:03;1.30;;;1.10;;
66429;SDS011;53242;51.694;10.006;2023-07-29T13:50:25;3.00;;;1.60;;
66429;SDS011;53242;51.694;10.006;2023-07-29T13:52:48;1.70;;;1.50;;
66429;SDS011;53242;51.694;10.006;2023-07-29T13:55:10;1.77;;;1.60;;
66429;SDS011;53242;51.694;10.006;2023-07-29T13:57:33;1.90;;;1.42;;
66429;SDS011;53242;51.694;10.006;2023-07-29T13:59:56;2.05;;;1.55;;
66429;SDS011;53242;51.694;10.006;2023-07-29T14:02:18;1.55;;;1.38;;
66429;SDS011;53242;51.694;10.006;2023-07-29T14:04:40;2.38;;;1.55;;
66429;SDS011;53242;51.694;10.006;2023-07-29T14:07:03;2.42;;;1.60;;
66429;SDS011;53242;51.694;10.006;2023-07-29T14:09:26;3.25;;;1.50;;
66429;SDS011;53242;51.694;10.006;2023-07-29T14:11:49;2.05;;;1.38;;
66429;SDS011;53242;51.694;10.006;2023-07-29T14:14:11;3.15;;;1.45;;
66429;SDS011;53242;51.694;10.006;2023-07-29T14:16:34;1.50;;;1.10;;
66429;SDS011;53242;51.694;10.006;2023-07-29T14:18:56;2.70;;;1.60;;
66429;SDS011;53242;51.694;10.006;2023-07-29T14:21:19;3.00;;;1.50;;
66429;SDS011;53242;51.694;10.006;2023-07-29T14:23:41;1.95;;;1.50;;
66429;SDS011;53242;51.694;10.006;2023-07-29T14:26:04;2.88;;;1.75;;